Aviation Digital Data Service (ADDS)

Output produced by METARs form (2318 UTC 01 February 2023)
found at http://www.aviationweather.gov/metar/data/
 
KSAV 012253Z 30005KT 10SM SCT044 BKN250 23/14 A3015 RMK AO2 SLP208 T02330144
KSAV 011729Z 0118/0218 29007KT P6SM FEW025 SCT050 
     FM020300 VRB03KT P6SM SCT008 BKN025 
     FM020600 04004KT 3SM BR SCT003 OVC008 
     FM020900 VRB03KT 2SM BR OVC003 
     FM021430 VRB03KT P6SM OVC008